sensor_id;sensor_type;location;lat;lon;timestamp;temperature;humidity
72576;DHT22;60613;48.658;2.328;2023-12-07T07:02:33;19.80;34.70
72576;DHT22;60613;48.658;2.328;2023-12-07T07:04:59;19.80;35.90
72576;DHT22;60613;48.658;2.328;2023-12-07T07:07:25;19.80;35.60
72576;DHT22;60613;48.658;2.328;2023-12-07T07:09:52;19.90;35.70
72576;DHT22;60613;48.658;2.328;2023-12-07T07:12:17;19.90;35.50
72576;DHT22;60613;48.658;2.328;2023-12-07T07:14:43;19.90;35.40
72576;DHT22;60613;48.658;2.328;2023-12-07T07:17:08;20.00;35.30
72576;DHT22;60613;48.658;2.328;2023-12-07T07:19:34;20.00;35.30
72576;DHT22;60613;48.658;2.328;2023-12-07T07:21:59;20.10;35.20
72576;DHT22;60613;48.658;2.328;2023-12-07T07:24:25;20.10;35.20
72576;DHT22;60613;48.658;2.328;2023-12-07T07:26:50;20.10;35.10
72576;DHT22;60613;48.658;2.328;2023-12-07T07:29:16;20.10;35.10
72576;DHT22;60613;48.658;2.328;2023-12-07T07:31:42;20.10;34.90
72576;DHT22;60613;48.658;2.328;2023-12-07T07:34:07;20.10;35.00
72576;DHT22;60613;48.658;2.328;2023-12-07T07:36:33;20.20;35.00
72576;DHT22;60613;48.658;2.328;2023-12-07T07:38:58;20.20;34.90
72576;DHT22;60613;48.658;2.328;2023-12-07T07:41:24;20.20;34.90
72576;DHT22;60613;48.658;2.328;2023-12-07T07:43:50;20.20;33.40
72576;DHT22;60613;48.658;2.328;2023-12-07T07:46:16;19.70;31.80
72576;DHT22;60613;48.658;2.328;2023-12-07T07:48:41;19.30;33.00
72576;DHT22;60613;48.658;2.328;2023-12-07T07:51:07;18.90;33.20
72576;DHT22;60613;48.658;2.328;2023-12-07T07:53:33;18.50;33.80
72576;DHT22;60613;48.658;2.328;2023-12-07T07:55:58;18.20;34.30
72576;DHT22;60613;48.658;2.328;2023-12-07T07:58:24;18.00;34.80
72576;DHT22;60613;48.658;2.328;2023-12-07T08:00:49;17.80;35.30
72576;DHT22;60613;48.658;2.328;2023-12-07T08:03:16;17.60;35.70
72576;DHT22;60613;48.658;2.328;2023-12-07T08:05:42;17.40;36.00
72576;DHT22;60613;48.658;2.328;2023-12-07T08:08:07;17.20;36.60
72576;DHT22;60613;48.658;2.328;2023-12-07T08:10:34;17.10;36.90
72576;DHT22;60613;48.658;2.328;2023-12-07T08:12:59;17.00;37.10
72576;DHT22;60613;48.658;2.328;2023-12-07T08:15:25;16.90;37.40
72576;DHT22;60613;48.658;2.328;2023-12-07T08:17:51;16.80;37.80
72576;DHT22;60613;48.658;2.328;2023-12-07T08:20:16;16.90;38.80
72576;DHT22;60613;48.658;2.328;2023-12-07T08:22:42;17.40;39.10
72576;DHT22;60613;48.658;2.328;2023-12-07T08:25:07;17.80;38.40
72576;DHT22;60613;48.658;2.328;2023-12-07T08:27:36;18.10;37.90
72576;DHT22;60613;48.658;2.328;2023-12-07T08:30:01;18.30;37.70
72576;DHT22;60613;48.658;2.328;2023-12-07T08:32:27;18.50;37.20
72576;DHT22;60613;48.658;2.328;2023-12-07T08:34:53;18.70;38.20
72576;DHT22;60613;48.658;2.328;2023-12-07T08:37:20;18.80;36.70
72576;DHT22;60613;48.658;2.328;2023-12-07T08:39:45;19.00;36.80
72576;DHT22;60613;48.658;2.328;2023-12-07T08:42:11;19.10;39.60
72576;DHT22;60613;48.658;2.328;2023-12-07T08:44:37;19.20;38.50
72576;DHT22;60613;48.658;2.328;2023-12-07T08:47:03;19.30;38.20
72576;DHT22;60613;48.658;2.328;2023-12-07T08:49:29;19.40;38.30
72576;DHT22;60613;48.658;2.328;2023-12-07T08:51:54;19.50;38.40
72576;DHT22;60613;48.658;2.328;2023-12-07T08:54:21;19.50;38.70
72576;DHT22;60613;48.658;2.328;2023-12-07T08:56:46;19.60;40.60
72576;DHT22;60613;48.658;2.328;2023-12-07T08:59:12;19.70;39.20
72576;DHT22;60613;48.658;2.328;2023-12-07T09:01:38;19.80;39.10
72576;DHT22;60613;48.658;2.328;2023-12-07T09:04:03;19.80;39.10
72576;DHT22;60613;48.658;2.328;2023-12-07T09:06:29;19.90;39.10
72576;DHT22;60613;48.658;2.328;2023-12-07T09:08:55;20.10;38.80
72576;DHT22;60613;48.658;2.328;2023-12-07T09:11:20;20.20;38.80
72576;DHT22;60613;48.658;2.328;2023-12-07T09:13:46;20.20;38.50
72576;DHT22;60613;48.658;2.328;2023-12-07T09:16:12;20.30;38.10
72576;DHT22;60613;48.658;2.328;2023-12-07T09:18:38;20.30;37.80
72576;DHT22;60613;48.658;2.328;2023-12-07T09:21:04;20.40;37.60
72576;DHT22;60613;48.658;2.328;2023-12-07T09:23:31;20.40;37.30
72576;DHT22;60613;48.658;2.328;2023-12-07T09:25:56;20.40;38.20
72576;DHT22;60613;48.658;2.328;2023-12-07T09:28:22;20.50;36.90
72576;DHT22;60613;48.658;2.328;2023-12-07T09:30:49;20.40;36.80
72576;DHT22;60613;48.658;2.328;2023-12-07T09:33:14;20.30;36.70
72576;DHT22;60613;48.658;2.328;2023-12-07T09:35:40;20.30;36.60
72576;DHT22;60613;48.658;2.328;2023-12-07T09:38:06;20.30;36.70
72576;DHT22;60613;48.658;2.328;2023-12-07T09:40:32;20.30;36.50
72576;DHT22;60613;48.658;2.328;2023-12-07T09:42:58;20.30;36.40
72576;DHT22;60613;48.658;2.328;2023-12-07T09:45:24;20.30;36.30
72576;DHT22;60613;48.658;2.328;2023-12-07T09:47:51;20.30;36.30
72576;DHT22;60613;48.658;2.328;2023-12-07T09:50:17;20.40;36.20
72576;DHT22;60613;48.658;2.328;2023-12-07T09:52:44;20.40;36.20
72576;DHT22;60613;48.658;2.328;2023-12-07T09:55:09;20.40;36.00
72576;DHT22;60613;48.658;2.328;2023-12-07T09:57:37;20.40;36.20
72576;DHT22;60613;48.658;2.328;2023-12-07T10:00:03;20.40;36.00
72576;DHT22;60613;48.658;2.328;2023-12-07T10:02:30;20.40;35.80
72576;DHT22;60613;48.658;2.328;2023-12-07T10:05:09;20.40;35.90
72576;DHT22;60613;48.658;2.328;2023-12-07T10:07:46;20.50;35.80
72576;DHT22;60613;48.658;2.328;2023-12-07T10:10:17;20.50;35.80
72576;DHT22;60613;48.658;2.328;2023-12-07T10:12:58;20.50;35.60
72576;DHT22;60613;48.658;2.328;2023-12-07T10:15:24;20.50;35.60
72576;DHT22;60613;48.658;2.328;2023-12-07T10:17:57;20.50;35.50
72576;DHT22;60613;48.658;2.328;2023-12-07T10:20:25;20.50;35.50
72576;DHT22;60613;48.658;2.328;2023-12-07T10:23:03;20.50;35.30
72576;DHT22;60613;48.658;2.328;2023-12-07T10:25:34;20.50;35.40
72576;DHT22;60613;48.658;2.328;2023-12-07T10:28:00;20.50;35.20
72576;DHT22;60613;48.658;2.328;2023-12-07T10:30:27;20.50;35.20
72576;DHT22;60613;48.658;2.328;2023-12-07T10:32:52;20.50;35.20
72576;DHT22;60613;48.658;2.328;2023-12-07T10:35:19;20.50;35.20
72576;DHT22;60613;48.658;2.328;2023-12-07T10:37:46;20.60;35.20
72576;DHT22;60613;48.658;2.328;2023-12-07T10:40:12;20.60;35.20
72576;DHT22;60613;48.658;2.328;2023-12-07T10:42:40;20.60;34.80
72576;DHT22;60613;48.658;2.328;2023-12-07T10:45:07;20.70;34.60
72576;DHT22;60613;48.658;2.328;2023-12-07T10:47:37;20.60;35.80
72576;DHT22;60613;48.658;2.328;2023-12-07T10:50:07;20.70;34.60
72576;DHT22;60613;48.658;2.328;2023-12-07T10:52:54;20.70;34.80
72576;DHT22;60613;48.658;2.328;2023-12-07T10:55:21;20.70;34.70
72576;DHT22;60613;48.658;2.328;2023-12-07T10:57:52;20.70;34.60
72576;DHT22;60613;48.658;2.328;2023-12-07T11:00:19;20.70;34.60
72576;DHT22;60613;48.658;2.328;2023-12-07T11:02:46;20.70;34.60
72576;DHT22;60613;48.658;2.328;2023-12-07T11:05:11;20.70;34.50
72576;DHT22;60613;48.658;2.328;2023-12-07T11:10:20;20.70;34.60
72576;DHT22;60613;48.658;2.328;2023-12-07T11:12:53;20.70;34.40
72576;DHT22;60613;48.658;2.328;2023-12-07T11:15:21;20.70;34.50
72576;DHT22;60613;48.658;2.328;2023-12-07T11:17:51;20.70;34.30
72576;DHT22;60613;48.658;2.328;2023-12-07T11:20:42;20.80;34.40
72576;DHT22;60613;48.658;2.328;2023-12-07T11:23:09;20.90;34.30
72576;DHT22;60613;48.658;2.328;2023-12-07T11:25:36;20.90;34.10
72576;DHT22;60613;48.658;2.328;2023-12-07T11:28:03;20.90;34.10
72576;DHT22;60613;48.658;2.328;2023-12-07T11:30:36;20.90;34.30
72576;DHT22;60613;48.658;2.328;2023-12-07T11:33:05;20.90;34.40
72576;DHT22;60613;48.658;2.328;2023-12-07T11:35:32;20.80;34.30
72576;DHT22;60613;48.658;2.328;2023-12-07T11:38:07;20.80;34.40
72576;DHT22;60613;48.658;2.328;2023-12-07T11:40:41;20.80;34.40
72576;DHT22;60613;48.658;2.328;2023-12-07T11:43:07;20.80;34.60
72576;DHT22;60613;48.658;2.328;2023-12-07T11:45:37;20.80;34.60
72576;DHT22;60613;48.658;2.328;2023-12-07T11:48:09;20.80;34.50
72576;DHT22;60613;48.658;2.328;2023-12-07T11:50:35;20.80;34.60
72576;DHT22;60613;48.658;2.328;2023-12-07T11:53:00;20.80;34.60
72576;DHT22;60613;48.658;2.328;2023-12-07T11:55:26;20.90;34.50
72576;DHT22;60613;48.658;2.328;2023-12-07T11:57:52;20.80;34.60
72576;DHT22;60613;48.658;2.328;2023-12-07T12:00:17;20.90;34.60
72576;DHT22;60613;48.658;2.328;2023-12-07T12:02:46;20.90;34.50
72576;DHT22;60613;48.658;2.328;2023-12-07T12:05:13;20.90;34.50
72576;DHT22;60613;48.658;2.328;2023-12-07T12:07:38;20.90;34.90
72576;DHT22;60613;48.658;2.328;2023-12-07T12:10:04;21.00;34.40
72576;DHT22;60613;48.658;2.328;2023-12-07T12:12:32;21.00;34.50
72576;DHT22;60613;48.658;2.328;2023-12-07T12:14:58;21.10;34.40
72576;DHT22;60613;48.658;2.328;2023-12-07T12:17:24;21.00;34.40
72576;DHT22;60613;48.658;2.328;2023-12-07T12:19:50;21.00;34.30
72576;DHT22;60613;48.658;2.328;2023-12-07T12:22:20;21.00;34.50
72576;DHT22;60613;48.658;2.328;2023-12-07T12:24:46;21.00;34.40
72576;DHT22;60613;48.658;2.328;2023-12-07T12:27:13;21.00;34.40
72576;DHT22;60613;48.658;2.328;2023-12-07T12:29:39;21.00;34.40
72576;DHT22;60613;48.658;2.328;2023-12-07T12:32:06;21.00;34.40
72576;DHT22;60613;48.658;2.328;2023-12-07T12:34:34;21.00;34.40
72576;DHT22;60613;48.658;2.328;2023-12-07T12:36:59;21.00;34.20
72576;DHT22;60613;48.658;2.328;2023-12-07T12:39:29;21.00;34.30
72576;DHT22;60613;48.658;2.328;2023-12-07T12:41:57;21.00;34.30
72576;DHT22;60613;48.658;2.328;2023-12-07T12:44:24;21.00;34.20
72576;DHT22;60613;48.658;2.328;2023-12-07T12:46:50;21.00;34.20
72576;DHT22;60613;48.658;2.328;2023-12-07T12:49:15;21.00;34.30
72576;DHT22;60613;48.658;2.328;2023-12-07T12:51:44;21.00;34.30
72576;DHT22;60613;48.658;2.328;2023-12-07T12:54:09;21.00;34.20
72576;DHT22;60613;48.658;2.328;2023-12-07T12:56:37;21.00;34.20
72576;DHT22;60613;48.658;2.328;2023-12-07T12:59:02;21.10;34.10
72576;DHT22;60613;48.658;2.328;2023-12-07T13:01:28;21.00;34.20
72576;DHT22;60613;48.658;2.328;2023-12-07T13:03:54;21.10;34.20
72576;DHT22;60613;48.658;2.328;2023-12-07T13:06:19;21.10;34.20
72576;DHT22;60613;48.658;2.328;2023-12-07T13:08:46;21.10;34.10
72576;DHT22;60613;48.658;2.328;2023-12-07T13:11:18;21.10;35.20
72576;DHT22;60613;48.658;2.328;2023-12-07T13:13:45;21.10;34.10
72576;DHT22;60613;48.658;2.328;2023-12-07T13:16:12;21.10;34.10
72576;DHT22;60613;48.658;2.328;2023-12-07T13:18:40;21.10;33.90
72576;DHT22;60613;48.658;2.328;2023-12-07T13:21:05;21.20;34.10
72576;DHT22;60613;48.658;2.328;2023-12-07T13:23:31;21.20;34.00
72576;DHT22;60613;48.658;2.328;2023-12-07T13:25:57;21.20;33.90
72576;DHT22;60613;48.658;2.328;2023-12-07T13:28:22;21.20;33.90
72576;DHT22;60613;48.658;2.328;2023-12-07T13:30:48;21.10;33.80
72576;DHT22;60613;48.658;2.328;2023-12-07T13:33:14;21.20;33.70
72576;DHT22;60613;48.658;2.328;2023-12-07T13:35:39;21.20;33.90
72576;DHT22;60613;48.658;2.328;2023-12-07T13:38:05;21.20;33.90
72576;DHT22;60613;48.658;2.328;2023-12-07T13:40:31;21.20;33.80
72576;DHT22;60613;48.658;2.328;2023-12-07T13:42:56;21.20;33.80
72576;DHT22;60613;48.658;2.328;2023-12-07T13:45:22;21.20;33.90
72576;DHT22;60613;48.658;2.328;2023-12-07T13:47:47;21.20;33.80
72576;DHT22;60613;48.658;2.328;2023-12-07T13:50:13;21.20;33.90
72576;DHT22;60613;48.658;2.328;2023-12-07T13:52:39;21.10;33.80
72576;DHT22;60613;48.658;2.328;2023-12-07T13:55:05;21.20;34.00
72576;DHT22;60613;48.658;2.328;2023-12-07T13:57:30;21.10;33.80
72576;DHT22;60613;48.658;2.328;2023-12-07T13:59:56;21.20;33.90
72576;DHT22;60613;48.658;2.328;2023-12-07T14:02:23;21.20;34.00
72576;DHT22;60613;48.658;2.328;2023-12-07T14:04:49;21.20;34.10
72576;DHT22;60613;48.658;2.328;2023-12-07T14:07:19;21.10;33.80
72576;DHT22;60613;48.658;2.328;2023-12-07T14:09:47;21.10;33.90
72576;DHT22;60613;48.658;2.328;2023-12-07T14:12:13;21.10;34.00
72576;DHT22;60613;48.658;2.328;2023-12-07T14:14:46;21.10;33.80
72576;DHT22;60613;48.658;2.328;2023-12-07T14:17:16;21.10;34.00
72576;DHT22;60613;48.658;2.328;2023-12-07T14:19:43;21.10;34.10
72576;DHT22;60613;48.658;2.328;2023-12-07T14:22:08;21.10;33.90
72576;DHT22;60613;48.658;2.328;2023-12-07T14:24:37;21.10;34.10
72576;DHT22;60613;48.658;2.328;2023-12-07T14:27:03;21.00;34.10
72576;DHT22;60613;48.658;2.328;2023-12-07T14:29:30;21.00;34.10
72576;DHT22;60613;48.658;2.328;2023-12-07T14:31:57;21.00;34.20
72576;DHT22;60613;48.658;2.328;2023-12-07T14:34:24;21.00;34.20
72576;DHT22;60613;48.658;2.328;2023-12-07T14:36:50;21.00;34.00
72576;DHT22;60613;48.658;2.328;2023-12-07T14:39:16;21.00;34.00
72576;DHT22;60613;48.658;2.328;2023-12-07T14:41:45;21.00;33.90
72576;DHT22;60613;48.658;2.328;2023-12-07T14:44:17;21.00;34.10
72576;DHT22;60613;48.658;2.328;2023-12-07T14:46:44;21.00;34.00
72576;DHT22;60613;48.658;2.328;2023-12-07T14:49:11;21.00;34.20
72576;DHT22;60613;48.658;2.328;2023-12-07T14:51:37;21.00;33.90
72576;DHT22;60613;48.658;2.328;2023-12-07T14:54:03;21.10;34.10
72576;DHT22;60613;48.658;2.328;2023-12-07T14:56:28;21.10;33.90
72576;DHT22;60613;48.658;2.328;2023-12-07T14:58:54;21.10;33.90
72576;DHT22;60613;48.658;2.328;2023-12-07T15:01:19;21.10;34.10
72576;DHT22;60613;48.658;2.328;2023-12-07T15:03:45;21.10;34.50
72576;DHT22;60613;48.658;2.328;2023-12-07T15:06:11;21.10;33.90
72576;DHT22;60613;48.658;2.328;2023-12-07T15:08:36;21.10;33.70
72576;DHT22;60613;48.658;2.328;2023-12-07T15:11:02;21.10;33.80
72576;DHT22;60613;48.658;2.328;2023-12-07T15:13:29;21.20;33.10
72576;DHT22;60613;48.658;2.328;2023-12-07T15:15:54;21.20;33.20
72576;DHT22;60613;48.658;2.328;2023-12-07T15:18:20;21.20;33.50
72576;DHT22;60613;48.658;2.328;2023-12-07T15:20:46;21.20;33.40
72576;DHT22;60613;48.658;2.328;2023-12-07T15:23:11;21.20;33.40
72576;DHT22;60613;48.658;2.328;2023-12-07T15:25:37;21.20;33.40
72576;DHT22;60613;48.658;2.328;2023-12-07T15:28:02;21.20;33.40
72576;DHT22;60613;48.658;2.328;2023-12-07T15:30:28;21.20;33.50
72576;DHT22;60613;48.658;2.328;2023-12-07T15:32:55;21.20;33.40
72576;DHT22;60613;48.658;2.328;2023-12-07T15:35:20;21.20;33.30
72576;DHT22;60613;48.658;2.328;2023-12-07T15:37:46;21.20;33.20
72576;DHT22;60613;48.658;2.328;2023-12-07T15:40:12;21.10;33.40
72576;DHT22;60613;48.658;2.328;2023-12-07T15:42:38;21.10;33.40
72576;DHT22;60613;48.658;2.328;2023-12-07T15:45:05;21.10;33.40
72576;DHT22;60613;48.658;2.328;2023-12-07T15:47:31;21.10;33.40
72576;DHT22;60613;48.658;2.328;2023-12-07T15:49:58;21.10;33.40
72576;DHT22;60613;48.658;2.328;2023-12-07T15:52:23;21.10;33.40
72576;DHT22;60613;48.658;2.328;2023-12-07T15:54:49;21.10;33.40
72576;DHT22;60613;48.658;2.328;2023-12-07T15:57:14;21.10;33.40
72576;DHT22;60613;48.658;2.328;2023-12-07T15:59:41;21.10;33.40
72576;DHT22;60613;48.658;2.328;2023-12-07T16:02:07;21.10;33.30
72576;DHT22;60613;48.658;2.328;2023-12-07T16:04:33;21.10;33.30
72576;DHT22;60613;48.658;2.328;2023-12-07T16:06:58;21.10;33.40
72576;DHT22;60613;48.658;2.328;2023-12-07T16:09:24;21.10;33.40
72576;DHT22;60613;48.658;2.328;2023-12-07T16:11:50;21.10;33.40
72576;DHT22;60613;48.658;2.328;2023-12-07T16:14:15;21.10;33.30
72576;DHT22;60613;48.658;2.328;2023-12-07T16:16:41;21.10;33.20
72576;DHT22;60613;48.658;2.328;2023-12-07T16:19:07;21.10;33.30
72576;DHT22;60613;48.658;2.328;2023-12-07T16:21:32;21.10;33.30
72576;DHT22;60613;48.658;2.328;2023-12-07T16:23:58;21.10;33.30
72576;DHT22;60613;48.658;2.328;2023-12-07T16:26:25;21.10;33.30
72576;DHT22;60613;48.658;2.328;2023-12-07T16:28:50;21.10;33.30
72576;DHT22;60613;48.658;2.328;2023-12-07T16:31:16;21.10;33.40
72576;DHT22;60613;48.658;2.328;2023-12-07T16:33:41;21.00;33.30
72576;DHT22;60613;48.658;2.328;2023-12-07T16:36:08;21.00;33.30
72576;DHT22;60613;48.658;2.328;2023-12-07T16:38:39;21.10;33.30
72576;DHT22;60613;48.658;2.328;2023-12-07T16:41:06;21.10;33.30
72576;DHT22;60613;48.658;2.328;2023-12-07T16:43:31;21.10;33.30
72576;DHT22;60613;48.658;2.328;2023-12-07T16:45:57;21.10;33.30
72576;DHT22;60613;48.658;2.328;2023-12-07T16:48:23;21.10;33.30
72576;DHT22;60613;48.658;2.328;2023-12-07T16:50:49;21.10;33.30
72576;DHT22;60613;48.658;2.328;2023-12-07T16:53:15;21.10;33.30
72576;DHT22;60613;48.658;2.328;2023-12-07T16:55:41;21.10;33.40
72576;DHT22;60613;48.658;2.328;2023-12-07T16:58:08;21.10;33.40
72576;DHT22;60613;48.658;2.328;2023-12-07T17:00:34;21.10;33.40
72576;DHT22;60613;48.658;2.328;2023-12-07T17:03:00;21.10;33.30
72576;DHT22;60613;48.658;2.328;2023-12-07T17:05:26;21.10;33.30
72576;DHT22;60613;48.658;2.328;2023-12-07T17:07:51;21.10;34.50
72576;DHT22;60613;48.658;2.328;2023-12-07T17:10:17;21.10;33.30
72576;DHT22;60613;48.658;2.328;2023-12-07T17:12:42;21.10;33.30
72576;DHT22;60613;48.658;2.328;2023-12-07T17:15:09;21.10;34.30
72576;DHT22;60613;48.658;2.328;2023-12-07T17:17:35;21.10;33.10
72576;DHT22;60613;48.658;2.328;2023-12-07T17:20:02;21.10;33.20
72576;DHT22;60613;48.658;2.328;2023-12-07T17:22:28;21.10;33.20
72576;DHT22;60613;48.658;2.328;2023-12-07T17:24:54;21.10;33.30
72576;DHT22;60613;48.658;2.328;2023-12-07T17:27:19;21.00;33.30
72576;DHT22;60613;48.658;2.328;2023-12-07T17:29:45;21.00;33.30
72576;DHT22;60613;48.658;2.328;2023-12-07T17:32:11;21.10;33.30
72576;DHT22;60613;48.658;2.328;2023-12-07T17:34:36;21.00;33.30
72576;DHT22;60613;48.658;2.328;2023-12-07T17:37:04;21.10;33.40
72576;DHT22;60613;48.658;2.328;2023-12-07T17:39:29;21.10;33.40
72576;DHT22;60613;48.658;2.328;2023-12-07T17:41:55;21.10;33.30
72576;DHT22;60613;48.658;2.328;2023-12-07T17:44:20;21.10;33.30
72576;DHT22;60613;48.658;2.328;2023-12-07T17:46:46;21.10;33.40
72576;DHT22;60613;48.658;2.328;2023-12-07T17:49:12;21.00;33.30
72576;DHT22;60613;48.658;2.328;2023-12-07T17:51:37;21.00;33.30
72576;DHT22;60613;48.658;2.328;2023-12-07T17:54:03;21.00;33.40
72576;DHT22;60613;48.658;2.328;2023-12-07T17:56:29;21.00;33.40
72576;DHT22;60613;48.658;2.328;2023-12-07T17:58:54;21.00;33.40
72576;DHT22;60613;48.658;2.328;2023-12-07T18:01:21;21.00;33.30
72576;DHT22;60613;48.658;2.328;2023-12-07T18:03:46;21.00;33.40
72576;DHT22;60613;48.658;2.328;2023-12-07T18:06:12;21.00;33.40
72576;DHT22;60613;48.658;2.328;2023-12-07T18:08:38;21.00;33.40
72576;DHT22;60613;48.658;2.328;2023-12-07T18:11:03;21.10;33.60
72576;DHT22;60613;48.658;2.328;2023-12-07T18:13:29;21.10;33.50
72576;DHT22;60613;48.658;2.328;2023-12-07T18:15:55;21.10;33.40
72576;DHT22;60613;48.658;2.328;2023-12-07T18:18:20;21.10;33.40
72576;DHT22;60613;48.658;2.328;2023-12-07T18:20:46;21.20;33.40
72576;DHT22;60613;48.658;2.328;2023-12-07T18:23:11;21.20;33.50
72576;DHT22;60613;48.658;2.328;2023-12-07T18:25:37;21.20;33.40
72576;DHT22;60613;48.658;2.328;2023-12-07T18:28:02;21.20;33.30
72576;DHT22;60613;48.658;2.328;2023-12-07T18:30:28;21.20;34.60
72576;DHT22;60613;48.658;2.328;2023-12-07T18:32:54;21.20;33.40
72576;DHT22;60613;48.658;2.328;2023-12-07T18:35:21;21.10;33.40
72576;DHT22;60613;48.658;2.328;2023-12-07T18:37:46;21.10;33.40
72576;DHT22;60613;48.658;2.328;2023-12-07T18:40:12;21.00;33.50
72576;DHT22;60613;48.658;2.328;2023-12-07T18:42:38;21.00;33.50
72576;DHT22;60613;48.658;2.328;2023-12-07T18:45:04;21.00;33.60
72576;DHT22;60613;48.658;2.328;2023-12-07T18:47:29;21.00;33.60
72576;DHT22;60613;48.658;2.328;2023-12-07T18:49:55;20.90;33.60
72576;DHT22;60613;48.658;2.328;2023-12-07T18:52:21;20.90;33.70
72576;DHT22;60613;48.658;2.328;2023-12-07T18:54:48;20.90;33.80
72576;DHT22;60613;48.658;2.328;2023-12-07T18:57:14;20.90;33.90
72576;DHT22;60613;48.658;2.328;2023-12-07T18:59:39;20.90;33.90
72576;DHT22;60613;48.658;2.328;2023-12-07T19:02:05;20.90;34.00
72576;DHT22;60613;48.658;2.328;2023-12-07T19:04:30;20.90;33.90
72576;DHT22;60613;48.658;2.328;2023-12-07T19:06:56;20.90;33.90
72576;DHT22;60613;48.658;2.328;2023-12-07T19:09:22;20.90;33.90
72576;DHT22;60613;48.658;2.328;2023-12-07T19:11:48;20.90;34.00
72576;DHT22;60613;48.658;2.328;2023-12-07T19:14:14;20.90;34.10
72576;DHT22;60613;48.658;2.328;2023-12-07T19:16:41;20.90;34.10
72576;DHT22;60613;48.658;2.328;2023-12-07T19:19:07;20.90;35.40
72576;DHT22;60613;48.658;2.328;2023-12-07T19:21:33;20.90;34.10
72576;DHT22;60613;48.658;2.328;2023-12-07T19:23:58;20.90;34.10
72576;DHT22;60613;48.658;2.328;2023-12-07T19:26:24;20.90;34.20
72576;DHT22;60613;48.658;2.328;2023-12-07T19:28:49;20.90;34.30
72576;DHT22;60613;48.658;2.328;2023-12-07T19:31:15;20.90;34.20
72576;DHT22;60613;48.658;2.328;2023-12-07T19:33:40;20.90;34.20
72576;DHT22;60613;48.658;2.328;2023-12-07T19:36:06;20.90;34.20
72576;DHT22;60613;48.658;2.328;2023-12-07T19:38:32;20.90;34.10
72576;DHT22;60613;48.658;2.328;2023-12-07T19:41:01;20.90;34.20
72576;DHT22;60613;48.658;2.328;2023-12-07T19:43:28;20.90;34.10
72576;DHT22;60613;48.658;2.328;2023-12-07T19:45:56;20.90;34.10
72576;DHT22;60613;48.658;2.328;2023-12-07T19:48:21;20.90;34.20
72576;DHT22;60613;48.658;2.328;2023-12-07T19:50:47;20.90;34.20
72576;DHT22;60613;48.658;2.328;2023-12-07T19:53:13;20.90;34.20
72576;DHT22;60613;48.658;2.328;2023-12-07T19:55:38;20.90;34.00
72576;DHT22;60613;48.658;2.328;2023-12-07T19:58:04;20.90;33.80
72576;DHT22;60613;48.658;2.328;2023-12-07T20:00:31;20.90;33.80
72576;DHT22;60613;48.658;2.328;2023-12-07T20:02:57;20.80;34.00
72576;DHT22;60613;48.658;2.328;2023-12-07T20:05:22;20.80;34.10
72576;DHT22;60613;48.658;2.328;2023-12-07T20:07:49;20.80;34.00
72576;DHT22;60613;48.658;2.328;2023-12-07T20:10:14;20.80;34.10
72576;DHT22;60613;48.658;2.328;2023-12-07T20:12:40;20.80;34.20
72576;DHT22;60613;48.658;2.328;2023-12-07T20:15:06;20.80;34.20
72576;DHT22;60613;48.658;2.328;2023-12-07T20:17:32;20.70;34.10
72576;DHT22;60613;48.658;2.328;2023-12-07T20:19:58;20.70;34.10
72576;DHT22;60613;48.658;2.328;2023-12-07T20:22:23;20.70;34.20
72576;DHT22;60613;48.658;2.328;2023-12-07T20:24:49;20.70;34.20
72576;DHT22;60613;48.658;2.328;2023-12-07T20:27:14;20.70;34.30
72576;DHT22;60613;48.658;2.328;2023-12-07T20:29:40;20.70;34.20
72576;DHT22;60613;48.658;2.328;2023-12-07T20:32:05;20.80;34.20
72576;DHT22;60613;48.658;2.328;2023-12-07T20:34:31;20.80;34.20
72576;DHT22;60613;48.658;2.328;2023-12-07T20:36:57;20.80;34.30
72576;DHT22;60613;48.658;2.328;2023-12-07T20:39:24;20.80;34.20
72576;DHT22;60613;48.658;2.328;2023-12-07T20:41:50;20.80;34.20
72576;DHT22;60613;48.658;2.328;2023-12-07T20:44:15;20.80;34.20
72576;DHT22;60613;48.658;2.328;2023-12-07T20:46:41;20.90;34.30
72576;DHT22;60613;48.658;2.328;2023-12-07T20:49:08;20.80;34.10
72576;DHT22;60613;48.658;2.328;2023-12-07T20:51:34;20.80;34.20
72576;DHT22;60613;48.658;2.328;2023-12-07T20:54:00;20.90;34.20
72576;DHT22;60613;48.658;2.328;2023-12-07T20:56:26;20.90;34.20
72576;DHT22;60613;48.658;2.328;2023-12-07T20:58:52;20.90;34.20
72576;DHT22;60613;48.658;2.328;2023-12-07T21:01:19;20.90;34.10
72576;DHT22;60613;48.658;2.328;2023-12-07T21:03:44;20.90;34.10
72576;DHT22;60613;48.658;2.328;2023-12-07T21:06:10;20.90;34.20
72576;DHT22;60613;48.658;2.328;2023-12-07T21:08:38;20.90;34.10
72576;DHT22;60613;48.658;2.328;2023-12-07T21:11:04;20.90;34.10
72576;DHT22;60613;48.658;2.328;2023-12-07T21:13:29;20.90;34.10
72576;DHT22;60613;48.658;2.328;2023-12-07T21:15:55;20.90;34.10
72576;DHT22;60613;48.658;2.328;2023-12-07T21:18:21;20.90;34.10
72576;DHT22;60613;48.658;2.328;2023-12-07T21:20:46;20.90;34.10
72576;DHT22;60613;48.658;2.328;2023-12-07T21:23:12;20.90;34.10
72576;DHT22;60613;48.658;2.328;2023-12-07T21:25:44;20.90;34.10
72576;DHT22;60613;48.658;2.328;2023-12-07T21:28:09;20.90;34.10
72576;DHT22;60613;48.658;2.328;2023-12-07T21:30:35;21.00;34.10
72576;DHT22;60613;48.658;2.328;2023-12-07T21:33:04;21.00;34.10
72576;DHT22;60613;48.658;2.328;2023-12-07T21:35:29;21.00;34.10
72576;DHT22;60613;48.658;2.328;2023-12-07T21:37:55;21.00;34.10
72576;DHT22;60613;48.658;2.328;2023-12-07T21:40:20;21.00;34.10
72576;DHT22;60613;48.658;2.328;2023-12-07T21:42:46;20.90;34.10
72576;DHT22;60613;48.658;2.328;2023-12-07T21:45:11;21.00;34.10
72576;DHT22;60613;48.658;2.328;2023-12-07T21:47:37;21.00;34.10
72576;DHT22;60613;48.658;2.328;2023-12-07T21:50:03;21.00;34.10
72576;DHT22;60613;48.658;2.328;2023-12-07T21:52:28;21.00;34.10
72576;DHT22;60613;48.658;2.328;2023-12-07T21:54:54;21.10;34.20
72576;DHT22;60613;48.658;2.328;2023-12-07T21:57:19;21.10;34.10
72576;DHT22;60613;48.658;2.328;2023-12-07T21:59:45;21.10;34.10
72576;DHT22;60613;48.658;2.328;2023-12-07T22:02:12;21.10;34.20
72576;DHT22;60613;48.658;2.328;2023-12-07T22:04:37;21.00;34.20
72576;DHT22;60613;48.658;2.328;2023-12-07T22:07:03;21.00;34.20
72576;DHT22;60613;48.658;2.328;2023-12-07T22:09:30;21.00;34.20
72576;DHT22;60613;48.658;2.328;2023-12-07T22:11:56;21.00;34.20
72576;DHT22;60613;48.658;2.328;2023-12-07T22:14:21;21.00;34.20
72576;DHT22;60613;48.658;2.328;2023-12-07T22:16:47;21.00;34.20
72576;DHT22;60613;48.658;2.328;2023-12-07T22:19:15;21.00;34.20
72576;DHT22;60613;48.658;2.328;2023-12-07T22:21:41;21.00;34.20
72576;DHT22;60613;48.658;2.328;2023-12-07T22:24:07;20.90;34.10
72576;DHT22;60613;48.658;2.328;2023-12-07T22:26:32;20.90;34.20
72576;DHT22;60613;48.658;2.328;2023-12-07T22:28:58;20.90;34.30